Time;durP1;ratioP1;P1;durP2;ratioP2;P2;SDS_P1;SDS_P2;PMS_P1;PMS_P2;Temp;Humidity;BMP_temperature;BMP_pressure;BME280_temperature;BME280_humidity;BME280_pressure;Samples;Min_cycle;Max_cycle;Signal;HPM_P1;HPM_P2
2021/05/21 00:00:10;;;;;;;16.73;2.25;;;;;;;;;;4434290;32;20193;-71
2021/05/21 00:02:35;;;;;;;17.20;2.78;;;;;;;;;;4434622;32;20340;-72
2021/05/21 00:05:00;;;;;;;21.98;2.78;;;;;;;;;;4436255;32;20189;-71
2021/05/21 00:07:26;;;;;;;11.98;2.10;;;;;;;;;;4434320;32;20255;-72
2021/05/21 00:09:51;;;;;;;16.12;2.60;;;;;;;;;;4435308;32;20668;-71
2021/05/21 00:12:16;;;;;;;14.95;2.72;;;;;;;;;;4431632;32;20161;-71
2021/05/21 00:14:41;;;;;;;17.23;2.90;;;;;;;;;;4418952;32;20653;-71
2021/05/21 00:17:06;;;;;;;12.57;2.50;;;;;;;;;;4418400;32;20225;-70
2021/05/21 00:19:31;;;;;;;13.18;3.10;;;;;;;;;;4404463;32;20554;-70
2021/05/21 00:21:56;;;;;;;15.48;2.55;;;;;;;;;;4405359;32;20184;-71
2021/05/21 00:24:22;;;;;;;15.52;2.95;;;;;;;;;;4420026;32;20229;-71
2021/05/21 00:26:50;;;;;;;18.65;3.05;;;;;;;;;;4418405;32;20186;-71
2021/05/21 00:29:15;;;;;;;18.77;3.10;;;;;;;;;;4418700;32;20211;-71
2021/05/21 00:31:40;;;;;;;17.85;2.85;;;;;;;;;;4420492;32;20189;-70
2021/05/21 00:34:05;;;;;;;16.80;2.92;;;;;;;;;;4435821;32;20129;-72
2021/05/21 00:36:30;;;;;;;9.95;2.55;;;;;;;;;;4436014;32;20263;-72
2021/05/21 00:38:55;;;;;;;14.20;2.58;;;;;;;;;;4433894;32;20224;-71
2021/05/21 00:41:21;;;;;;;17.05;3.08;;;;;;;;;;4433848;32;20523;-72
2021/05/21 00:43:47;;;;;;;13.65;2.50;;;;;;;;;;4434265;32;20348;-72
2021/05/21 00:46:12;;;;;;;13.85;2.60;;;;;;;;;;4434555;32;20550;-72
2021/05/21 00:48:37;;;;;;;17.17;3.08;;;;;;;;;;4434988;32;20133;-72
2021/05/21 00:51:02;;;;;;;14.55;2.22;;;;;;;;;;4420388;32;20606;-72
2021/05/21 00:53:30;;;;;;;14.25;2.78;;;;;;;;;;4420181;32;20169;-72
2021/05/21 00:55:58;;;;;;;17.67;2.60;;;;;;;;;;4417868;32;20228;-72
2021/05/21 00:58:24;;;;;;;13.02;2.42;;;;;;;;;;4404578;32;20176;-72
2021/05/21 01:00:51;;;;;;;15.05;2.42;;;;;;;;;;4420334;32;20173;-72
2021/05/21 01:03:16;;;;;;;13.57;2.62;;;;;;;;;;4418593;32;20157;-71
2021/05/21 01:05:41;;;;;;;19.20;3.45;;;;;;;;;;4420328;32;20134;-71
2021/05/21 01:08:06;;;;;;;18.27;2.95;;;;;;;;;;4419020;32;20214;-71
2021/05/21 01:10:32;;;;;;;12.93;2.70;;;;;;;;;;4420366;32;20168;-70
2021/05/21 01:12:57;;;;;;;17.65;2.95;;;;;;;;;;4419624;32;20461;-70
2021/05/21 01:15:22;;;;;;;20.67;3.75;;;;;;;;;;4417738;32;20283;-71
2021/05/21 01:17:47;;;;;;;18.02;2.65;;;;;;;;;;4417983;32;20157;-70
2021/05/21 01:20:13;;;;;;;15.93;3.00;;;;;;;;;;4405557;32;20188;-70
2021/05/21 01:22:38;;;;;;;16.42;2.92;;;;;;;;;;4417941;32;20203;-71
2021/05/21 01:25:04;;;;;;;23.45;3.35;;;;;;;;;;4419611;32;20556;-70
2021/05/21 01:27:29;;;;;;;23.40;3.22;;;;;;;;;;4417097;32;20628;-70
2021/05/21 01:29:55;;;;;;;19.40;3.22;;;;;;;;;;4419172;32;20625;-70
2021/05/21 01:32:20;;;;;;;18.17;3.08;;;;;;;;;;4404073;32;20166;-70
2021/05/21 01:34:45;;;;;;;22.73;3.78;;;;;;;;;;4419068;32;20129;-70
2021/05/21 01:37:14;;;;;;;19.23;3.20;;;;;;;;;;4425310;32;20141;-70
2021/05/21 01:39:40;;;;;;;19.40;3.35;;;;;;;;;;4432774;32;20247;-70
2021/05/21 01:42:05;;;;;;;15.48;2.97;;;;;;;;;;4433985;32;20244;-70
2021/05/21 01:44:31;;;;;;;23.75;3.70;;;;;;;;;;4434970;32;20192;-71
2021/05/21 01:46:56;;;;;;;20.55;3.42;;;;;;;;;;4433284;32;20133;-70
2021/05/21 01:49:21;;;;;;;22.67;3.97;;;;;;;;;;4419818;32;20211;-71
2021/05/21 01:51:50;;;;;;;22.67;3.65;;;;;;;;;;4435838;32;20324;-71
2021/05/21 01:54:16;;;;;;;13.90;2.67;;;;;;;;;;4433278;32;20141;-71
2021/05/21 01:56:41;;;;;;;24.70;3.87;;;;;;;;;;4419559;32;20491;-71
2021/05/21 01:59:06;;;;;;;19.92;3.45;;;;;;;;;;4436192;32;20164;-71
2021/05/21 02:01:32;;;;;;;23.50;3.72;;;;;;;;;;4434587;32;20126;-71
2021/05/21 02:03:58;;;;;;;23.05;3.12;;;;;;;;;;4433562;32;20130;-70
2021/05/21 02:06:23;;;;;;;20.90;3.22;;;;;;;;;;4419405;32;20157;-70
2021/05/21 02:08:48;;;;;;;22.58;3.95;;;;;;;;;;4420515;32;20323;-71
2021/05/21 02:11:13;;;;;;;19.40;3.73;;;;;;;;;;4433493;32;20138;-71
2021/05/21 02:13:38;;;;;;;21.85;3.40;;;;;;;;;;4433600;32;20260;-71
2021/05/21 02:16:04;;;;;;;21.67;3.65;;;;;;;;;;4432641;32;20477;-70
2021/05/21 02:18:29;;;;;;;21.00;3.85;;;;;;;;;;4432259;32;20255;-70
2021/05/21 02:20:54;;;;;;;19.70;3.60;;;;;;;;;;4424867;32;20145;-70
2021/05/21 02:23:19;;;;;;;21.87;3.58;;;;;;;;;;4419251;32;20541;-70
2021/05/21 02:25:46;;;;;;;20.90;3.53;;;;;;;;;;4403717;32;20160;-73
2021/05/21 02:28:11;;;;;;;24.20;4.20;;;;;;;;;;4434116;32;20245;-70
2021/05/21 02:30:36;;;;;;;28.27;3.95;;;;;;;;;;4433762;32;20141;-71
2021/05/21 02:33:01;;;;;;;14.53;3.37;;;;;;;;;;4433153;32;20534;-71
2021/05/21 02:35:27;;;;;;;15.18;3.03;;;;;;;;;;4433974;32;20298;-70
2021/05/21 02:37:52;;;;;;;23.55;3.65;;;;;;;;;;4434050;32;20157;-70
2021/05/21 02:40:17;;;;;;;17.65;3.45;;;;;;;;;;4432900;32;20130;-70
2021/05/21 02:42:42;;;;;;;27.48;3.85;;;;;;;;;;4419670;32;20360;-71
2021/05/21 02:45:07;;;;;;;14.98;2.78;;;;;;;;;;4419543;32;20164;-71
2021/05/21 02:47:32;;;;;;;18.33;3.22;;;;;;;;;;4433836;32;20207;-71
2021/05/21 02:49:58;;;;;;;18.02;3.30;;;;;;;;;;4433840;32;20428;-71
2021/05/21 02:52:23;;;;;;;20.00;3.20;;;;;;;;;;4434380;32;20178;-71
2021/05/21 02:54:48;;;;;;;21.40;3.42;;;;;;;;;;4433920;32;20296;-71
2021/05/21 02:57:13;;;;;;;14.07;2.97;;;;;;;;;;4418844;32;20606;-70
2021/05/21 02:59:39;;;;;;;18.92;4.07;;;;;;;;;;4432867;32;20169;-71
2021/05/21 03:02:04;;;;;;;20.73;3.15;;;;;;;;;;4433601;32;20602;-70
2021/05/21 03:04:29;;;;;;;18.33;3.07;;;;;;;;;;4434443;32;20160;-70
2021/05/21 03:06:54;;;;;;;19.02;3.08;;;;;;;;;;4420762;32;20330;-70
2021/05/21 03:09:19;;;;;;;15.13;2.83;;;;;;;;;;4434408;32;20216;-70
2021/05/21 03:11:44;;;;;;;21.48;3.08;;;;;;;;;;4425366;32;20599;-70
2021/05/21 03:14:10;;;;;;;16.25;3.10;;;;;;;;;;4417213;32;20220;-70
2021/05/21 03:16:35;;;;;;;20.45;3.67;;;;;;;;;;4416925;32;20186;-71
2021/05/21 03:19:00;;;;;;;17.55;2.95;;;;;;;;;;4416776;32;20248;-71
2021/05/21 03:21:26;;;;;;;11.95;2.65;;;;;;;;;;4403300;32;20256;-70
2021/05/21 03:23:51;;;;;;;16.62;3.58;;;;;;;;;;4413686;32;20161;-71
2021/05/21 03:26:16;;;;;;;11.88;2.47;;;;;;;;;;4432094;32;20457;-72
2021/05/21 03:28:41;;;;;;;16.70;3.28;;;;;;;;;;4419509;32;20367;-71
2021/05/21 03:31:09;;;;;;;20.92;3.00;;;;;;;;;;4431813;32;20196;-70
2021/05/21 03:33:34;;;;;;;16.12;2.58;;;;;;;;;;4431581;32;20134;-70
2021/05/21 03:36:00;;;;;;;24.65;3.75;;;;;;;;;;4431802;32;20133;-71
2021/05/21 03:38:27;;;;;;;19.80;3.78;;;;;;;;;;4432294;32;20167;-71
2021/05/21 03:40:52;;;;;;;17.42;2.80;;;;;;;;;;4432516;32;20134;-71
2021/05/21 03:43:18;;;;;;;21.77;3.37;;;;;;;;;;4431853;32;20217;-71
2021/05/21 03:45:43;;;;;;;19.35;3.67;;;;;;;;;;4433283;32;20583;-70
2021/05/21 03:48:08;;;;;;;15.38;3.47;;;;;;;;;;4419271;32;20305;-71
2021/05/21 03:50:33;;;;;;;13.27;2.80;;;;;;;;;;4432385;32;20275;-71
2021/05/21 03:52:59;;;;;;;18.10;3.50;;;;;;;;;;4433069;32;20534;-71
2021/05/21 03:55:24;;;;;;;19.42;2.92;;;;;;;;;;4419121;32;20196;-71
2021/05/21 03:57:49;;;;;;;20.85;3.33;;;;;;;;;;4431023;32;20198;-71
2021/05/21 04:00:16;;;;;;;16.87;2.78;;;;;;;;;;4431435;32;20133;-71
2021/05/21 04:02:41;;;;;;;12.55;2.62;;;;;;;;;;4434079;32;20149;-71
2021/05/21 04:05:07;;;;;;;13.50;3.00;;;;;;;;;;4434512;32;20202;-71
2021/05/21 04:07:32;;;;;;;17.42;2.72;;;;;;;;;;4435009;32;20129;-71
2021/05/21 04:09:57;;;;;;;24.50;3.78;;;;;;;;;;4435281;32;20174;-71
2021/05/21 04:12:25;;;;;;;18.73;2.95;;;;;;;;;;4434811;32;20160;-72
2021/05/21 04:14:50;;;;;;;18.83;3.03;;;;;;;;;;4434644;32;20511;-71
2021/05/21 04:17:15;;;;;;;21.00;3.03;;;;;;;;;;4435728;32;20168;-71
2021/05/21 04:19:40;;;;;;;16.60;2.67;;;;;;;;;;4421983;32;20165;-70
2021/05/21 04:22:06;;;;;;;20.75;3.30;;;;;;;;;;4435659;32;20276;-71
2021/05/21 04:24:31;;;;;;;23.15;3.17;;;;;;;;;;4420021;32;20264;-71
2021/05/21 04:26:56;;;;;;;16.48;2.85;;;;;;;;;;4433726;32;20136;-70
2021/05/21 04:29:21;;;;;;;20.15;2.90;;;;;;;;;;4433859;32;20385;-72
2021/05/21 04:31:46;;;;;;;14.48;2.78;;;;;;;;;;4435595;32;20547;-70
2021/05/21 04:34:11;;;;;;;16.70;2.85;;;;;;;;;;4434827;32;20165;-70
2021/05/21 04:36:37;;;;;;;16.37;2.53;;;;;;;;;;4434814;32;20274;-70
2021/05/21 04:39:03;;;;;;;18.45;2.75;;;;;;;;;;4434746;32;20308;-71
2021/05/21 04:41:28;;;;;;;23.25;3.40;;;;;;;;;;4435577;32;20264;-71
2021/05/21 04:43:54;;;;;;;15.00;2.55;;;;;;;;;;4434103;32;20159;-71
2021/05/21 04:46:19;;;;;;;14.00;2.58;;;;;;;;;;4420501;32;20189;-71
2021/05/21 04:48:44;;;;;;;16.03;2.90;;;;;;;;;;4419719;32;20188;-71
2021/05/21 04:51:10;;;;;;;12.93;2.33;;;;;;;;;;4433222;32;20229;-71
2021/05/21 04:53:37;;;;;;;15.82;2.70;;;;;;;;;;4433799;32;20206;-71
2021/05/21 04:56:02;;;;;;;17.58;2.95;;;;;;;;;;4419766;32;20158;-71
2021/05/21 04:58:27;;;;;;;16.83;2.95;;;;;;;;;;4435106;32;20156;-72
2021/05/21 05:00:53;;;;;;;11.95;2.58;;;;;;;;;;4404961;32;20187;-71
2021/05/21 05:03:18;;;;;;;14.52;2.30;;;;;;;;;;4418286;32;20395;-71
2021/05/21 05:05:46;;;;;;;13.93;2.20;;;;;;;;;;4418623;32;20130;-71
2021/05/21 05:08:14;;;;;;;20.60;3.00;;;;;;;;;;4419451;32;20146;-71
2021/05/21 05:10:39;;;;;;;12.48;2.92;;;;;;;;;;4418251;32;20233;-71
2021/05/21 05:13:04;;;;;;;14.43;2.72;;;;;;;;;;4403882;32;20165;-71
2021/05/21 05:15:32;;;;;;;13.75;2.12;;;;;;;;;;4403585;32;20225;-70
2021/05/21 05:17:57;;;;;;;10.75;2.50;;;;;;;;;;4418774;32;20519;-71
2021/05/21 05:20:23;;;;;;;19.23;3.40;;;;;;;;;;4417677;32;20160;-71
2021/05/21 05:22:51;;;;;;;14.63;2.85;;;;;;;;;;4418109;32;20198;-71
2021/05/21 05:25:16;;;;;;;15.18;3.45;;;;;;;;;;4417823;32;20227;-70
2021/05/21 05:27:41;;;;;;;16.52;3.28;;;;;;;;;;4404198;32;20162;-70
2021/05/21 05:30:06;;;;;;;18.20;3.03;;;;;;;;;;4419177;32;20141;-72
2021/05/21 05:32:32;;;;;;;15.93;3.08;;;;;;;;;;4419629;32;20130;-70
2021/05/21 05:34:57;;;;;;;17.00;3.55;;;;;;;;;;4419468;32;20160;-71
2021/05/21 05:37:22;;;;;;;15.47;2.70;;;;;;;;;;4418091;32;20170;-69
2021/05/21 05:39:47;;;;;;;15.25;2.87;;;;;;;;;;4417615;32;20248;-71
2021/05/21 05:42:12;;;;;;;15.43;3.70;;;;;;;;;;4418127;32;20171;-71
2021/05/21 05:44:37;;;;;;;14.30;2.33;;;;;;;;;;4417890;32;20134;-71
2021/05/21 05:47:03;;;;;;;15.75;3.50;;;;;;;;;;4402803;32;20344;-71
2021/05/21 05:49:28;;;;;;;14.25;2.50;;;;;;;;;;4416559;32;20311;-70
2021/05/21 05:51:53;;;;;;;14.55;3.08;;;;;;;;;;4419110;32;20278;-72
2021/05/21 05:54:18;;;;;;;6.72;2.17;;;;;;;;;;4403498;32;20618;-71
2021/05/21 05:56:43;;;;;;;9.45;2.30;;;;;;;;;;4403863;32;20400;-70
2021/05/21 05:59:09;;;;;;;17.00;3.28;;;;;;;;;;4419236;32;20169;-71
2021/05/21 06:01:34;;;;;;;13.10;2.97;;;;;;;;;;4417700;32;20164;-71
2021/05/21 06:03:59;;;;;;;15.25;3.15;;;;;;;;;;4417971;32;20496;-71
2021/05/21 06:06:25;;;;;;;11.65;2.85;;;;;;;;;;4405081;32;20241;-71
2021/05/21 06:08:50;;;;;;;15.02;3.03;;;;;;;;;;4435958;32;20175;-70
2021/05/21 06:11:15;;;;;;;13.20;2.83;;;;;;;;;;4433400;32;20161;-70
2021/05/21 06:13:42;;;;;;;16.52;2.85;;;;;;;;;;4431463;32;20176;-72
2021/05/21 06:16:07;;;;;;;21.05;3.25;;;;;;;;;;4411896;32;20181;-71
2021/05/21 06:18:32;;;;;;;10.00;2.15;;;;;;;;;;4416538;32;20150;-71
2021/05/21 06:20:57;;;;;;;17.50;2.90;;;;;;;;;;4416947;32;20198;-71
2021/05/21 06:23:22;;;;;;;18.48;3.58;;;;;;;;;;4430300;32;20171;-71
2021/05/21 06:28:16;;;;;;;15.68;3.25;;;;;;;;;;4432952;32;20292;-70
2021/05/21 06:30:41;;;;;;;11.68;2.95;;;;;;;;;;4419410;32;20331;-71
2021/05/21 06:33:06;;;;;;;16.45;2.95;;;;;;;;;;4419125;32;20141;-71
2021/05/21 06:35:34;;;;;;;17.87;3.10;;;;;;;;;;4402133;32;20582;-71
2021/05/21 06:37:59;;;;;;;12.02;2.78;;;;;;;;;;4417664;32;20168;-71
2021/05/21 06:40:25;;;;;;;6.97;2.78;;;;;;;;;;4417099;32;20522;-72
2021/05/21 06:42:50;;;;;;;11.32;2.60;;;;;;;;;;4418817;32;20131;-72
2021/05/21 06:45:15;;;;;;;15.95;2.70;;;;;;;;;;4416419;32;20157;-71
2021/05/21 06:47:40;;;;;;;14.15;2.30;;;;;;;;;;4419676;32;20187;-70
2021/05/21 06:50:06;;;;;;;13.20;2.80;;;;;;;;;;4429855;32;20514;-72
2021/05/21 06:52:31;;;;;;;16.17;2.95;;;;;;;;;;4416258;32;20146;-70
2021/05/21 06:54:56;;;;;;;13.70;2.97;;;;;;;;;;4420889;32;20259;-70
2021/05/21 06:57:22;;;;;;;11.23;2.25;;;;;;;;;;4414650;32;20177;-71
2021/05/21 06:59:48;;;;;;;17.85;3.70;;;;;;;;;;4411464;32;20187;-70
2021/05/21 07:02:13;;;;;;;15.68;3.22;;;;;;;;;;4415567;32;20188;-71
2021/05/21 07:04:38;;;;;;;14.97;2.83;;;;;;;;;;4419183;32;20185;-71
2021/05/21 07:07:03;;;;;;;15.57;2.50;;;;;;;;;;4417277;32;20237;-71
2021/05/21 07:09:28;;;;;;;16.23;2.80;;;;;;;;;;4410860;32;20220;-70
2021/05/21 07:11:54;;;;;;;15.13;2.55;;;;;;;;;;4400421;32;20161;-71
2021/05/21 07:14:19;;;;;;;8.30;2.12;;;;;;;;;;4401101;32;20166;-71
2021/05/21 07:16:44;;;;;;;21.08;3.28;;;;;;;;;;4401758;32;20164;-71
2021/05/21 07:19:13;;;;;;;14.60;3.17;;;;;;;;;;4401291;32;20523;-71
2021/05/21 07:21:38;;;;;;;17.08;2.37;;;;;;;;;;4401806;32;20618;-71
2021/05/21 07:24:04;;;;;;;13.80;2.87;;;;;;;;;;4401936;32;20131;-71
2021/05/21 07:26:31;;;;;;;8.52;2.22;;;;;;;;;;4416306;32;20181;-71
2021/05/21 07:28:56;;;;;;;12.95;2.92;;;;;;;;;;4415348;32;20165;-71
2021/05/21 07:31:26;;;;;;;12.95;2.50;;;;;;;;;;4416540;32;20176;-71
2021/05/21 07:33:51;;;;;;;8.55;2.55;;;;;;;;;;4415565;32;20555;-71
2021/05/21 07:36:16;;;;;;;13.85;2.80;;;;;;;;;;4415407;32;20161;-70
2021/05/21 07:38:42;;;;;;;12.83;2.63;;;;;;;;;;4417008;32;20161;-71
2021/05/21 07:41:07;;;;;;;10.10;2.62;;;;;;;;;;4418982;32;20681;-69
2021/05/21 07:43:33;;;;;;;13.57;2.55;;;;;;;;;;4420082;32;20671;-69
2021/05/21 07:45:58;;;;;;;15.48;2.60;;;;;;;;;;4413472;32;20184;-70
2021/05/21 07:48:24;;;;;;;19.53;4.20;;;;;;;;;;4418760;32;20130;-70
2021/05/21 07:50:49;;;;;;;16.17;3.12;;;;;;;;;;4417125;32;20288;-70
2021/05/21 07:53:14;;;;;;;15.23;2.65;;;;;;;;;;4418059;32;20173;-71
2021/05/21 07:55:39;;;;;;;9.63;2.10;;;;;;;;;;4418499;32;20145;-69
2021/05/21 07:58:06;;;;;;;11.70;2.33;;;;;;;;;;4422621;32;20558;-71
2021/05/21 08:00:31;;;;;;;13.70;2.85;;;;;;;;;;4422461;32;20429;-71
2021/05/21 08:02:56;;;;;;;11.05;3.00;;;;;;;;;;4410499;32;20158;-71
2021/05/21 08:05:23;;;;;;;16.42;2.95;;;;;;;;;;4406027;32;20232;-70
2021/05/21 08:07:48;;;;;;;9.50;2.55;;;;;;;;;;4419510;32;20222;-70
2021/05/21 08:10:14;;;;;;;13.85;2.62;;;;;;;;;;4406633;32;20236;-69
2021/05/21 08:12:39;;;;;;;9.40;2.25;;;;;;;;;;4435540;32;20582;-70
2021/05/21 08:15:05;;;;;;;7.87;2.45;;;;;;;;;;4435341;32;20137;-71
2021/05/21 08:17:33;;;;;;;9.73;2.20;;;;;;;;;;4435783;32;20146;-70
2021/05/21 08:19:58;;;;;;;8.48;1.92;;;;;;;;;;4420714;32;20161;-71
2021/05/21 08:22:24;;;;;;;15.55;3.08;;;;;;;;;;4419493;32;20195;-71
2021/05/21 08:24:49;;;;;;;8.38;1.77;;;;;;;;;;4404251;32;20272;-70
2021/05/21 08:27:14;;;;;;;11.43;2.78;;;;;;;;;;4409060;32;20681;-73
2021/05/21 08:29:39;;;;;;;8.95;2.20;;;;;;;;;;4419727;32;20196;-73
2021/05/21 08:32:04;;;;;;;15.65;2.62;;;;;;;;;;4432975;32;20488;-75
2021/05/21 08:34:30;;;;;;;12.77;2.83;;;;;;;;;;4419656;32;20236;-75
2021/05/21 08:36:55;;;;;;;10.82;2.35;;;;;;;;;;4419294;32;20580;-75
2021/05/21 08:39:21;;;;;;;10.48;2.60;;;;;;;;;;4433278;32;20133;-75
2021/05/21 08:41:48;;;;;;;13.13;3.30;;;;;;;;;;4419324;32;20210;-75
2021/05/21 08:44:14;;;;;;;13.30;2.50;;;;;;;;;;4433781;32;20155;-76
2021/05/21 08:46:39;;;;;;;18.65;2.80;;;;;;;;;;4432688;32;20192;-75
2021/05/21 08:49:05;;;;;;;10.20;2.78;;;;;;;;;;4434120;32;20436;-74
2021/05/21 08:51:31;;;;;;;11.73;2.33;;;;;;;;;;4417821;32;20476;-74
2021/05/21 08:53:56;;;;;;;15.13;2.30;;;;;;;;;;4413513;32;20292;-74
2021/05/21 08:56:22;;;;;;;17.98;3.40;;;;;;;;;;4417676;32;20196;-74
2021/05/21 08:58:47;;;;;;;13.90;3.03;;;;;;;;;;4426987;32;20134;-74
2021/05/21 09:01:13;;;;;;;11.25;2.70;;;;;;;;;;4417753;32;20578;-74
2021/05/21 09:03:38;;;;;;;10.07;2.35;;;;;;;;;;4403899;32;20154;-74
2021/05/21 09:06:15;;;;;;;7.25;2.37;;;;;;;;;;4404254;32;20551;-74
2021/05/21 09:08:45;;;;;;;12.85;2.70;;;;;;;;;;4420355;32;20479;-73
2021/05/21 09:11:30;;;;;;;11.43;2.60;;;;;;;;;;4420066;32;20192;-74
2021/05/21 09:13:59;;;;;;;10.93;2.47;;;;;;;;;;4405422;32;20278;-74
2021/05/21 09:16:26;;;;;;;8.68;2.60;;;;;;;;;;4425061;32;20633;-75
2021/05/21 09:18:58;;;;;;;12.15;2.58;;;;;;;;;;4419499;32;20160;-76
2021/05/21 09:21:23;;;;;;;11.48;2.70;;;;;;;;;;4390917;32;20195;-74
2021/05/21 09:24:02;;;;;;;12.55;2.62;;;;;;;;;;4404379;32;20539;-73
2021/05/21 09:26:40;;;;;;;14.77;2.47;;;;;;;;;;4428350;32;20248;-74
2021/05/21 09:29:06;;;;;;;12.70;2.95;;;;;;;;;;4419238;32;20187;-75
2021/05/21 09:31:40;;;;;;;7.32;1.65;;;;;;;;;;4419108;32;20169;-75
2021/05/21 09:34:05;;;;;;;11.80;2.30;;;;;;;;;;4432298;32;20125;-74
2021/05/21 09:36:32;;;;;;;10.95;2.28;;;;;;;;;;4411450;32;20566;-75
2021/05/21 09:38:58;;;;;;;12.00;2.55;;;;;;;;;;4402992;32;20188;-75
2021/05/21 09:41:25;;;;;;;11.65;2.50;;;;;;;;;;4402724;32;20185;-76
2021/05/21 09:43:57;;;;;;;12.95;2.17;;;;;;;;;;4416305;32;20168;-75
2021/05/21 09:46:23;;;;;;;10.93;2.40;;;;;;;;;;4415276;32;20267;-76
2021/05/21 09:48:48;;;;;;;11.12;2.67;;;;;;;;;;4433942;32;20446;-74
2021/05/21 09:51:18;;;;;;;10.88;2.20;;;;;;;;;;4432288;32;20252;-75
2021/05/21 09:53:46;;;;;;;13.27;2.85;;;;;;;;;;4418558;32;20271;-76
2021/05/21 09:56:20;;;;;;;13.52;2.50;;;;;;;;;;4432625;32;20179;-75
2021/05/21 09:58:45;;;;;;;13.38;2.75;;;;;;;;;;4417513;32;20221;-75
2021/05/21 10:01:18;;;;;;;11.93;2.50;;;;;;;;;;4431427;32;20198;-75
2021/05/21 10:03:44;;;;;;;8.95;2.37;;;;;;;;;;4432514;32;20206;-75
2021/05/21 10:06:10;;;;;;;10.95;2.35;;;;;;;;;;4431096;32;20173;-75
2021/05/21 10:08:38;;;;;;;10.77;2.40;;;;;;;;;;4417657;32;20551;-75
2021/05/21 10:11:04;;;;;;;9.00;2.40;;;;;;;;;;4431732;32;20571;-76
2021/05/21 10:13:30;;;;;;;11.15;2.40;;;;;;;;;;4418694;32;20193;-75
2021/05/21 10:15:55;;;;;;;5.80;1.77;;;;;;;;;;4418898;32;20200;-75
2021/05/21 10:18:21;;;;;;;11.52;2.33;;;;;;;;;;4432994;32;20145;-75
2021/05/21 10:20:47;;;;;;;7.00;1.40;;;;;;;;;;4431579;32;20544;-75
2021/05/21 10:23:19;;;;;;;6.95;1.98;;;;;;;;;;4419012;32;20158;-75
2021/05/21 10:25:46;;;;;;;8.90;2.00;;;;;;;;;;4432152;32;20191;-74
2021/05/21 10:28:12;;;;;;;7.80;1.80;;;;;;;;;;4418134;32;20165;-75
2021/05/21 10:30:37;;;;;;;11.93;2.12;;;;;;;;;;4419681;32;20161;-75
2021/05/21 10:33:21;;;;;;;11.65;2.60;;;;;;;;;;4419441;32;20309;-75
2021/05/21 10:35:46;;;;;;;9.00;2.17;;;;;;;;;;4418216;32;20184;-74
2021/05/21 10:38:22;;;;;;;10.80;3.03;;;;;;;;;;4431222;32;20514;-76
2021/05/21 10:41:23;;;;;;;8.95;2.40;;;;;;;;;;4409671;32;20157;-75
2021/05/21 10:43:51;;;;;;;11.25;2.35;;;;;;;;;;4333330;32;20759;-75
2021/05/21 10:46:18;;;;;;;6.50;2.00;;;;;;;;;;4403217;32;20192;-76
2021/05/21 10:48:56;;;;;;;14.63;2.42;;;;;;;;;;4419422;32;20246;-75
2021/05/21 10:51:22;;;;;;;13.85;2.90;;;;;;;;;;4417934;32;20169;-75
2021/05/21 10:53:48;;;;;;;11.00;2.50;;;;;;;;;;4433741;32;20125;-76
2021/05/21 10:56:14;;;;;;;8.90;2.10;;;;;;;;;;4432578;32;20273;-75
2021/05/21 10:58:44;;;;;;;8.63;2.42;;;;;;;;;;4417833;32;20196;-77
2021/05/21 11:01:19;;;;;;;4.93;1.40;;;;;;;;;;4413731;32;20202;-74
2021/05/21 11:03:54;;;;;;;11.12;2.65;;;;;;;;;;4433447;32;20196;-75
2021/05/21 11:06:19;;;;;;;8.07;1.42;;;;;;;;;;4416913;32;20251;-75
2021/05/21 11:08:44;;;;;;;9.20;2.33;;;;;;;;;;4421065;32;20226;-76
2021/05/21 11:11:14;;;;;;;12.10;2.10;;;;;;;;;;4435933;32;20145;-74
2021/05/21 11:13:39;;;;;;;13.45;2.20;;;;;;;;;;4435830;32;20171;-75
2021/05/21 11:16:08;;;;;;;7.62;2.17;;;;;;;;;;4435130;32;20209;-74
2021/05/21 11:18:34;;;;;;;9.35;2.28;;;;;;;;;;4436822;32;20164;-74
2021/05/21 11:21:10;;;;;;;10.73;2.10;;;;;;;;;;4434812;32;20180;-75
2021/05/21 11:23:38;;;;;;;8.57;2.15;;;;;;;;;;4421348;32;20156;-75
2021/05/21 11:26:21;;;;;;;6.25;1.83;;;;;;;;;;4434735;32;20230;-75
2021/05/21 11:28:53;;;;;;;10.55;2.12;;;;;;;;;;4421283;32;20252;-75
2021/05/21 11:31:22;;;;;;;11.20;2.40;;;;;;;;;;4436696;32;20156;-75
2021/05/21 11:33:48;;;;;;;5.53;1.75;;;;;;;;;;4436778;32;20133;-75
2021/05/21 11:36:14;;;;;;;8.05;2.20;;;;;;;;;;4422984;32;20204;-75
2021/05/21 11:38:39;;;;;;;7.43;2.15;;;;;;;;;;4428327;32;20192;-76
2021/05/21 11:41:08;;;;;;;10.07;2.10;;;;;;;;;;4407713;32;20157;-77
2021/05/21 11:43:37;;;;;;;10.38;2.33;;;;;;;;;;4407729;32;20153;-76
2021/05/21 11:46:03;;;;;;;10.82;2.47;;;;;;;;;;4408113;32;20187;-76
2021/05/21 11:48:32;;;;;;;7.15;2.05;;;;;;;;;;4422062;32;20130;-76
2021/05/21 11:50:57;;;;;;;17.95;3.00;;;;;;;;;;4407978;32;20161;-74
2021/05/21 11:53:23;;;;;;;10.18;2.28;;;;;;;;;;4408663;32;20213;-74
2021/05/21 11:55:49;;;;;;;12.82;3.47;;;;;;;;;;4422204;32;20157;-74
2021/05/21 11:58:25;;;;;;;11.57;2.90;;;;;;;;;;4407681;32;20570;-73
2021/05/21 12:00:51;;;;;;;10.98;2.67;;;;;;;;;;4414063;32;20200;-74
2021/05/21 12:03:16;;;;;;;10.90;2.78;;;;;;;;;;4422665;32;20161;-74
2021/05/21 12:05:43;;;;;;;6.62;1.90;;;;;;;;;;4422186;32;20195;-74
2021/05/21 12:08:08;;;;;;;7.93;1.90;;;;;;;;;;4423358;32;20541;-74
2021/05/21 12:10:33;;;;;;;8.10;2.00;;;;;;;;;;4438424;32;20137;-75
2021/05/21 12:13:08;;;;;;;5.47;1.43;;;;;;;;;;4436933;32;20133;-74
2021/05/21 12:15:33;;;;;;;5.57;1.73;;;;;;;;;;4436634;32;20243;-75
2021/05/21 12:17:59;;;;;;;7.12;2.03;;;;;;;;;;4422902;32;20158;-75
2021/05/21 12:20:24;;;;;;;10.88;2.30;;;;;;;;;;4423389;32;20157;-75
2021/05/21 12:23:06;;;;;;;10.80;2.40;;;;;;;;;;4421957;32;20321;-76
2021/05/21 12:25:32;;;;;;;8.63;1.70;;;;;;;;;;4423788;32;20445;-75
2021/05/21 12:28:00;;;;;;;10.10;5.68;;;;;;;;;;4436314;32;20153;-74
2021/05/21 12:30:27;;;;;;;4.10;1.10;;;;;;;;;;4422636;32;20161;-76
2021/05/21 12:32:52;;;;;;;5.43;1.37;;;;;;;;;;4447583;32;20223;-76
2021/05/21 12:35:19;;;;;;;8.40;1.73;;;;;;;;;;4437972;32;20482;-75
2021/05/21 12:37:48;;;;;;;8.07;1.10;;;;;;;;;;4438435;32;20157;-75
2021/05/21 12:40:14;;;;;;;6.75;1.10;;;;;;;;;;4426874;32;20173;-76
2021/05/21 12:42:47;;;;;;;3.10;1.20;;;;;;;;;;4428798;32;20192;-76
2021/05/21 12:45:12;;;;;;;4.47;1.55;;;;;;;;;;4436745;32;20141;-77
2021/05/21 12:47:44;;;;;;;4.03;1.25;;;;;;;;;;4421175;32;20465;-76
2021/05/21 12:50:10;;;;;;;8.43;1.62;;;;;;;;;;4435746;32;20137;-76
2021/05/21 12:52:51;;;;;;;8.63;1.50;;;;;;;;;;4419429;32;20279;-76
2021/05/21 12:55:16;;;;;;;6.18;1.20;;;;;;;;;;4426491;32;20263;-76
2021/05/21 12:57:43;;;;;;;8.88;1.62;;;;;;;;;;4428428;32;20601;-76
2021/05/21 13:00:08;;;;;;;10.82;1.80;;;;;;;;;;4406563;32;20220;-76
2021/05/21 13:02:36;;;;;;;6.85;2.00;;;;;;;;;;4406699;32;20214;-78
2021/05/21 13:05:02;;;;;;;8.10;2.05;;;;;;;;;;4406129;32;20578;-76
2021/05/21 13:07:28;;;;;;;6.70;2.00;;;;;;;;;;4419983;32;20161;-76
2021/05/21 13:09:54;;;;;;;12.37;2.10;;;;;;;;;;4406728;32;20161;-75
2021/05/21 13:12:28;;;;;;;9.13;2.00;;;;;;;;;;4419547;32;20219;-76
2021/05/21 13:14:53;;;;;;;9.35;2.12;;;;;;;;;;4405920;32;20201;-76
2021/05/21 13:17:18;;;;;;;11.55;2.40;;;;;;;;;;4414182;32;20188;-75
2021/05/21 13:19:44;;;;;;;10.47;2.20;;;;;;;;;;4406143;32;20184;-75
2021/05/21 13:22:17;;;;;;;15.18;3.10;;;;;;;;;;4420726;32;20314;-75
2021/05/21 13:24:43;;;;;;;8.30;1.95;;;;;;;;;;4420740;32;20230;-75
2021/05/21 13:27:09;;;;;;;13.68;2.28;;;;;;;;;;4434493;32;20199;-75
2021/05/21 13:29:34;;;;;;;6.35;2.05;;;;;;;;;;4419191;32;20236;-75
2021/05/21 13:31:59;;;;;;;4.97;1.50;;;;;;;;;;4434521;32;20191;-77
2021/05/21 13:34:26;;;;;;;6.87;2.00;;;;;;;;;;4434935;32;20197;-77
2021/05/21 13:36:51;;;;;;;6.45;1.87;;;;;;;;;;4420839;32;20184;-77
2021/05/21 13:39:16;;;;;;;9.57;2.25;;;;;;;;;;4421066;32;20173;-76
2021/05/21 13:41:41;;;;;;;7.87;1.77;;;;;;;;;;4420864;32;20157;-76
2021/05/21 13:44:07;;;;;;;12.07;2.20;;;;;;;;;;4420667;32;20180;-75
2021/05/21 13:46:32;;;;;;;9.43;2.10;;;;;;;;;;4408485;32;20280;-75
2021/05/21 13:48:58;;;;;;;8.05;2.00;;;;;;;;;;4420039;32;20198;-76
2021/05/21 13:51:23;;;;;;;6.20;1.77;;;;;;;;;;4405253;32;20162;-77
2021/05/21 13:53:48;;;;;;;6.57;1.77;;;;;;;;;;4420352;32;20126;-76
2021/05/21 13:56:14;;;;;;;6.37;1.33;;;;;;;;;;4419551;32;20154;-76
2021/05/21 13:58:40;;;;;;;8.20;1.73;;;;;;;;;;4421110;32;20463;-77
2021/05/21 14:01:05;;;;;;;6.68;1.90;;;;;;;;;;4451188;32;20152;-77
2021/05/21 14:03:30;;;;;;;8.57;1.70;;;;;;;;;;4424181;32;20238;-77
2021/05/21 14:05:55;;;;;;;5.63;2.00;;;;;;;;;;4435127;32;20287;-77
2021/05/21 14:08:20;;;;;;;9.17;1.70;;;;;;;;;;4420721;32;20282;-77
2021/05/21 14:10:45;;;;;;;4.72;1.25;;;;;;;;;;4435121;32;20232;-76
2021/05/21 14:13:11;;;;;;;3.58;1.30;;;;;;;;;;4421481;32;20192;-77
2021/05/21 14:15:36;;;;;;;2.15;1.10;;;;;;;;;;4434706;32;20178;-78
2021/05/21 14:18:01;;;;;;;7.00;1.80;;;;;;;;;;4420537;32;20161;-77
2021/05/21 14:20:26;;;;;;;5.00;1.27;;;;;;;;;;4422464;32;20164;-77
2021/05/21 14:22:53;;;;;;;5.07;1.12;;;;;;;;;;4420421;32;20234;-76
2021/05/21 14:25:26;;;;;;;7.07;1.50;;;;;;;;;;4420794;32;20183;-77
2021/05/21 14:27:51;;;;;;;4.15;1.00;;;;;;;;;;4421292;32;20117;-75
2021/05/21 14:30:16;;;;;;;5.80;1.35;;;;;;;;;;4432397;32;20663;-76